createdAt,value
2018-09-08T00:01:30.908Z,16.52
2018-09-08T00:03:59.357Z,16.37
2018-09-08T00:06:35.790Z,16.27
2018-09-08T00:09:06.641Z,16.27
2018-09-08T00:11:35.134Z,16.13
2018-09-08T00:14:03.593Z,16.14
2018-09-08T00:16:37.262Z,16.03
2018-09-08T00:19:11.010Z,16.09
2018-09-08T00:21:44.941Z,15.88
2018-09-08T00:24:18.761Z,15.98
2018-09-08T00:26:46.336Z,16.02
2018-09-08T00:29:22.545Z,16.03
2018-09-08T00:31:51.127Z,15.93
2018-09-08T00:34:19.581Z,15.94
2018-09-08T00:36:48.069Z,15.88
2018-09-08T00:39:16.493Z,15.79
2018-09-08T00:41:45.022Z,15.66
2018-09-08T00:44:13.469Z,15.54
2018-09-08T00:46:41.984Z,15.45
2018-09-08T00:49:10.426Z,15.46
2018-09-08T00:51:38.951Z,15.38
2018-09-08T00:54:07.460Z,15.25
2018-09-08T00:56:35.975Z,15.10
2018-09-08T00:59:05.509Z,15.04
2018-09-08T01:01:35.315Z,15.07
2018-09-08T01:04:03.851Z,15.09
2018-09-08T01:06:32.715Z,15.01
2018-09-08T01:09:01.259Z,15.03
2018-09-08T01:11:29.762Z,15.04
2018-09-08T01:13:58.252Z,14.98
2018-09-08T01:16:26.758Z,14.93
2018-09-08T01:18:55.244Z,14.94
2018-09-08T01:21:23.773Z,14.89
2018-09-08T01:23:53.605Z,14.92
2018-09-08T01:26:22.760Z,14.92
2018-09-08T01:28:52.189Z,14.80
2018-09-08T01:31:21.072Z,14.77
2018-09-08T01:33:49.569Z,14.73
2018-09-08T01:36:18.009Z,14.66
2018-09-08T01:38:46.535Z,14.81
2018-09-08T01:41:15.017Z,14.82
2018-09-08T01:43:43.498Z,14.85
2018-09-08T01:46:11.965Z,14.64
2018-09-08T01:48:40.499Z,14.50
2018-09-08T01:51:09.023Z,14.26
2018-09-08T01:53:37.505Z,14.31
2018-09-08T01:56:05.989Z,14.33
2018-09-08T01:58:34.504Z,14.28
2018-09-08T02:01:02.975Z,14.33
2018-09-08T02:03:31.495Z,14.30
2018-09-08T02:06:00.012Z,14.23
2018-09-08T02:08:28.590Z,14.28
2018-09-08T02:10:59.145Z,14.23
2018-09-08T02:13:27.625Z,14.00
2018-09-08T02:15:56.107Z,13.91
2018-09-08T02:18:24.616Z,13.79
2018-09-08T02:20:53.100Z,13.62
2018-09-08T02:23:21.631Z,13.46
2018-09-08T02:25:50.184Z,13.51
2018-09-08T02:28:18.649Z,13.61
2018-09-08T02:30:47.133Z,13.61
2018-09-08T02:33:15.613Z,13.66
2018-09-08T02:38:17.193Z,13.70
2018-09-08T02:40:46.777Z,13.67
2018-09-08T02:43:15.258Z,13.71
2018-09-08T02:45:43.704Z,13.73
2018-09-08T02:48:12.183Z,13.72
2018-09-08T02:50:40.465Z,13.75
2018-09-08T02:53:09.483Z,13.67
2018-09-08T02:55:37.121Z,13.72
2018-09-08T02:58:04.444Z,13.71
2018-09-08T03:00:32.059Z,13.69
2018-09-08T03:02:59.410Z,13.70
2018-09-08T03:05:26.689Z,13.69
2018-09-08T03:07:54.008Z,13.64
2018-09-08T03:10:21.976Z,13.78
2018-09-08T03:12:49.311Z,13.82
2018-09-08T03:15:16.580Z,13.86
2018-09-08T03:17:43.890Z,13.96
2018-09-08T03:20:11.158Z,14.05
2018-09-08T03:22:38.484Z,13.99
2018-09-08T03:25:05.809Z,14.01
2018-09-08T03:27:33.064Z,13.95
2018-09-08T03:30:00.356Z,13.87
2018-09-08T03:32:27.616Z,13.79
2018-09-08T03:34:54.901Z,13.77
2018-09-08T03:37:22.159Z,13.76
2018-09-08T03:39:49.436Z,13.75
2018-09-08T03:42:16.725Z,13.73
2018-09-08T03:44:44.020Z,13.81
2018-09-08T03:47:11.264Z,13.90
2018-09-08T03:49:38.528Z,13.66
2018-09-08T03:52:05.780Z,13.65
2018-09-08T03:54:33.058Z,13.61
2018-09-08T03:57:00.312Z,13.66
2018-09-08T03:59:27.799Z,13.70
2018-09-08T04:01:55.054Z,13.69
2018-09-08T04:04:23.501Z,13.63
2018-09-08T04:06:52.003Z,13.64
2018-09-08T04:09:20.492Z,13.58
2018-09-08T04:11:48.952Z,13.48
2018-09-08T04:14:17.416Z,13.57
2018-09-08T04:16:45.865Z,13.50
2018-09-08T04:19:14.345Z,13.43
2018-09-08T04:21:42.799Z,13.29
2018-09-08T04:24:11.339Z,13.32
2018-09-08T04:26:39.778Z,13.25
2018-09-08T04:29:08.305Z,13.16
2018-09-08T04:31:36.787Z,13.22
2018-09-08T04:34:05.302Z,13.18
2018-09-08T04:36:33.747Z,13.16
2018-09-08T04:39:02.278Z,13.25
2018-09-08T04:41:30.933Z,13.30
2018-09-08T04:43:59.418Z,13.39
2018-09-08T04:46:27.869Z,13.46
2018-09-08T04:48:56.354Z,13.54
2018-09-08T04:51:24.812Z,13.58
2018-09-08T04:53:53.292Z,13.64
2018-09-08T04:56:21.767Z,13.68
2018-09-08T04:58:50.329Z,13.72
2018-09-08T05:01:18.784Z,13.77
2018-09-08T05:03:47.311Z,13.80
2018-09-08T05:06:15.752Z,13.83
2018-09-08T05:08:44.249Z,14.03
2018-09-08T05:11:12.697Z,14.09
2018-09-08T05:13:41.152Z,14.15
2018-09-08T05:16:09.602Z,14.22
2018-09-08T05:18:38.255Z,14.32
2018-09-08T05:21:06.740Z,14.55
2018-09-08T05:23:35.169Z,14.73
2018-09-08T05:26:03.701Z,14.87
2018-09-08T05:28:32.259Z,14.99
2018-09-08T05:31:00.706Z,15.06
2018-09-08T05:33:32.017Z,15.09
2018-09-08T05:36:00.501Z,15.00
2018-09-08T05:38:28.943Z,14.99
2018-09-08T05:40:57.426Z,15.05
2018-09-08T05:43:25.872Z,15.09
2018-09-08T05:45:54.337Z,15.13
2018-09-08T05:48:22.779Z,15.30
2018-09-08T05:50:51.266Z,15.47
2018-09-08T05:53:19.711Z,15.74
2018-09-08T05:55:48.226Z,16.10
2018-09-08T05:58:16.689Z,16.28
2018-09-08T06:00:45.180Z,16.58
2018-09-08T06:03:13.684Z,16.69
2018-09-08T06:05:42.196Z,16.66
2018-09-08T06:08:10.739Z,16.71
2018-09-08T06:10:39.226Z,16.85
2018-09-08T06:13:07.653Z,16.91
2018-09-08T06:15:36.113Z,16.68
2018-09-08T06:18:04.626Z,16.34
2018-09-08T06:20:33.101Z,16.32
2018-09-08T06:23:01.524Z,16.40
2018-09-08T06:25:30.031Z,16.37
2018-09-08T06:27:59.160Z,16.44
2018-09-08T06:30:27.623Z,16.76
2018-09-08T06:32:56.078Z,17.04
2018-09-08T06:35:24.662Z,17.37
2018-09-08T06:37:53.038Z,17.48
2018-09-08T06:40:21.517Z,17.65
2018-09-08T06:42:49.966Z,17.70
2018-09-08T06:45:18.492Z,17.86
2018-09-08T06:47:46.947Z,17.92
2018-09-08T06:50:15.464Z,18.21
2018-09-08T06:52:43.917Z,18.75
2018-09-08T06:55:12.465Z,19.22
2018-09-08T06:57:40.926Z,20.55
2018-09-08T07:00:09.514Z,22.85
2018-09-08T07:02:37.983Z,25.52
2018-09-08T07:05:06.735Z,26.18
2018-09-08T07:07:35.168Z,27.92
2018-09-08T07:10:03.703Z,27.61
2018-09-08T07:12:32.157Z,26.59
2018-09-08T07:15:00.622Z,25.11
2018-09-08T07:17:29.120Z,24.27
2018-09-08T07:19:57.573Z,26.04
2018-09-08T07:22:26.045Z,26.49
2018-09-08T07:24:54.608Z,27.52
2018-09-08T07:27:23.049Z,27.77
2018-09-08T07:29:51.535Z,29.61
2018-09-08T07:32:20.044Z,27.99
2018-09-08T07:34:48.530Z,27.08
2018-09-08T07:37:17.094Z,26.87
2018-09-08T07:39:45.533Z,27.17
2018-09-08T07:42:14.063Z,28.43
2018-09-08T07:44:42.572Z,29.02
2018-09-08T07:47:11.057Z,31.39
2018-09-08T07:49:39.557Z,32.37
2018-09-08T07:52:08.041Z,33.55
2018-09-08T07:54:36.485Z,32.70
2018-09-08T07:57:05.245Z,32.98
2018-09-08T07:59:33.713Z,34.49
2018-09-08T08:02:02.211Z,34.29
2018-09-08T08:04:30.656Z,32.78
2018-09-08T08:06:59.128Z,33.05
2018-09-08T08:09:27.573Z,34.53
2018-09-08T08:11:56.041Z,35.88
2018-09-08T08:14:24.515Z,35.31
2018-09-08T08:16:52.983Z,35.56
2018-09-08T08:19:21.516Z,34.17
2018-09-08T08:21:50.169Z,32.44
2018-09-08T08:24:18.652Z,31.27
2018-09-08T08:26:47.146Z,32.24
2018-09-08T08:29:15.631Z,33.42
2018-09-08T08:31:44.121Z,32.85
2018-09-08T08:34:12.550Z,33.23
2018-09-08T08:36:41.063Z,32.72
2018-09-08T08:39:09.618Z,33.12
2018-09-08T08:41:38.141Z,34.84
2018-09-08T08:44:06.763Z,37.10
2018-09-08T08:46:35.274Z,36.19
2018-09-08T08:49:03.768Z,36.18
2018-09-08T08:51:42.410Z,37.22
2018-09-08T08:54:22.644Z,37.08
2018-09-08T08:56:51.176Z,35.28
2018-09-08T08:59:19.630Z,36.14
2018-09-08T09:01:48.122Z,36.27
2018-09-08T09:04:16.549Z,35.61
2018-09-08T09:06:45.017Z,36.05
2018-09-08T09:09:14.762Z,37.11
2018-09-08T09:11:44.398Z,35.21
2018-09-08T09:14:13.464Z,34.36
2018-09-08T09:16:42.190Z,35.03
2018-09-08T09:19:35.005Z,36.57
2018-09-08T09:22:16.041Z,34.88
2018-09-08T09:24:55.684Z,35.13
2018-09-08T09:27:24.782Z,37.25
2018-09-08T09:29:53.578Z,36.92
2018-09-08T09:32:22.147Z,35.03
2018-09-08T09:34:50.701Z,36.88
2018-09-08T09:37:19.346Z,37.57
2018-09-08T09:39:48.151Z,36.14
2018-09-08T09:42:16.639Z,36.26
2018-09-08T09:44:45.117Z,36.24
2018-09-08T09:47:29.326Z,36.44
2018-09-08T09:49:58.666Z,34.88
2018-09-08T09:52:27.161Z,34.45
2018-09-08T09:54:55.630Z,35.05
2018-09-08T09:57:36.329Z,34.80
2018-09-08T10:00:11.283Z,35.82
2018-09-08T10:02:40.887Z,35.29
2018-09-08T10:05:16.321Z,36.09
2018-09-08T10:07:44.908Z,36.27
2018-09-08T10:10:14.708Z,35.77
2018-09-08T10:12:43.228Z,35.12
2018-09-08T10:15:11.783Z,34.44
2018-09-08T10:17:40.997Z,35.04
2018-09-08T10:20:11.541Z,34.72
2018-09-08T10:22:40.045Z,35.33
2018-09-08T10:25:10.582Z,35.85
2018-09-08T10:27:39.110Z,36.86
2018-09-08T10:30:08.849Z,34.94
2018-09-08T10:32:37.337Z,33.42
2018-09-08T10:35:05.933Z,35.24
2018-09-08T10:37:34.459Z,35.78
2018-09-08T10:40:02.945Z,33.91
2018-09-08T10:42:31.405Z,32.70
2018-09-08T10:44:59.921Z,32.19
2018-09-08T10:47:28.577Z,32.88
2018-09-08T10:50:00.059Z,33.23
2018-09-08T10:52:37.865Z,32.63
2018-09-08T10:55:06.597Z,33.53
2018-09-08T10:57:35.022Z,34.28
2018-09-08T11:00:04.116Z,34.72
2018-09-08T11:02:32.922Z,33.28
2018-09-08T11:05:01.915Z,34.77
2018-09-08T11:07:30.841Z,34.65
2018-09-08T11:09:59.483Z,35.19
2018-09-08T11:12:27.987Z,34.79
2018-09-08T11:14:56.462Z,34.74
2018-09-08T11:17:25.175Z,33.83
2018-09-08T11:19:53.678Z,33.92
2018-09-08T11:22:22.136Z,34.71
2018-09-08T11:24:50.613Z,34.38
2018-09-08T11:27:19.113Z,34.41
2018-09-08T11:29:47.581Z,34.71
2018-09-08T11:32:16.022Z,32.36
2018-09-08T11:34:44.507Z,32.01
2018-09-08T11:37:22.689Z,30.01
2018-09-08T11:39:51.160Z,27.76
2018-09-08T11:42:23.459Z,27.22
2018-09-08T11:45:01.284Z,27.93
2018-09-08T11:47:47.970Z,27.44
2018-09-08T11:50:18.184Z,29.04
2018-09-08T11:52:47.272Z,29.38
2018-09-08T11:55:41.756Z,30.69
2018-09-08T11:58:20.111Z,30.01
2018-09-08T12:00:55.680Z,29.63
2018-09-08T12:03:24.352Z,28.01
2018-09-08T12:06:09.329Z,28.72
2018-09-08T12:08:47.153Z,27.60
2018-09-08T12:11:15.633Z,27.65
2018-09-08T12:13:45.529Z,27.04
2018-09-08T12:16:21.189Z,27.17
2018-09-08T12:19:06.494Z,27.28
2018-09-08T12:21:35.965Z,27.77
2018-09-08T12:24:04.421Z,28.86
2018-09-08T12:26:56.697Z,30.56
2018-09-08T12:29:46.006Z,31.68
2018-09-08T12:32:29.115Z,32.63
2018-09-08T12:34:58.554Z,32.74
2018-09-08T12:37:26.981Z,32.68
2018-09-08T12:39:55.895Z,32.65
2018-09-08T12:42:35.704Z,31.56
2018-09-08T12:45:18.420Z,32.42
2018-09-08T12:47:53.895Z,32.30
2018-09-08T12:50:27.757Z,32.32
2018-09-08T12:53:09.622Z,31.81
2018-09-08T12:55:38.194Z,32.57
2018-09-08T12:58:06.513Z,32.48
2018-09-08T13:00:36.078Z,33.46
2018-09-08T13:03:04.574Z,33.53
2018-09-08T13:05:38.961Z,33.45
2018-09-08T13:08:08.016Z,34.05
2018-09-08T13:10:36.481Z,33.36
2018-09-08T13:13:24.318Z,33.27
2018-09-08T13:15:52.992Z,33.56
2018-09-08T13:18:21.492Z,33.23
2018-09-08T13:20:50.616Z,33.30
2018-09-08T13:23:25.256Z,33.19
2018-09-08T13:26:00.808Z,33.11
2018-09-08T13:28:33.396Z,33.19
2018-09-08T13:31:02.706Z,33.96
2018-09-08T13:36:15.476Z,34.42
2018-09-08T13:38:43.994Z,34.78
2018-09-08T13:44:46.803Z,32.87
2018-09-08T13:47:17.331Z,32.86
2018-09-08T13:49:45.746Z,32.93
2018-09-08T13:52:14.242Z,31.87
2018-09-08T13:54:42.751Z,32.84
2018-09-08T13:57:11.240Z,33.69
2018-09-08T13:59:39.688Z,34.46
2018-09-08T14:02:08.190Z,34.24
2018-09-08T14:04:36.633Z,32.78
2018-09-08T14:07:05.109Z,32.12
2018-09-08T14:09:33.577Z,32.34
2018-09-08T14:12:02.104Z,31.42
2018-09-08T14:14:30.600Z,31.53
2018-09-08T14:17:01.616Z,30.64
2018-09-08T14:19:30.363Z,30.73
2018-09-08T14:21:59.090Z,32.13
2018-09-08T14:24:27.537Z,33.19
2018-09-08T14:26:56.071Z,32.47
2018-09-08T14:29:24.533Z,32.48
2018-09-08T14:31:52.993Z,31.80
2018-09-08T14:34:21.463Z,31.42
2018-09-08T14:36:50.081Z,32.25
2018-09-08T14:39:18.485Z,31.73
2018-09-08T14:41:46.949Z,33.06
2018-09-08T14:44:15.373Z,31.84
2018-09-08T14:46:43.850Z,31.06
2018-09-08T14:49:12.286Z,31.47
2018-09-08T14:51:40.755Z,32.01
2018-09-08T14:54:09.214Z,32.55
2018-09-08T14:56:37.814Z,32.52
2018-09-08T14:59:06.257Z,32.58
2018-09-08T15:01:38.265Z,32.25
2018-09-08T15:04:06.758Z,32.33
2018-09-08T15:06:35.227Z,30.89
2018-09-08T15:09:03.789Z,29.70
2018-09-08T15:11:32.249Z,28.85
2018-09-08T15:14:00.728Z,28.88
2018-09-08T15:16:29.246Z,28.55
2018-09-08T15:18:57.676Z,29.58
2018-09-08T15:21:26.182Z,30.76
2018-09-08T15:23:55.041Z,30.51
2018-09-08T15:26:23.572Z,29.44
2018-09-08T15:28:52.020Z,27.94
2018-09-08T15:31:20.425Z,27.24
2018-09-08T15:33:48.883Z,27.97
2018-09-08T15:36:17.349Z,28.93
2018-09-08T15:38:45.805Z,29.55
2018-09-08T15:41:14.295Z,29.84
2018-09-08T15:43:42.817Z,29.19
2018-09-08T15:46:11.234Z,29.71
2018-09-08T15:48:39.728Z,29.57
2018-09-08T15:51:08.297Z,29.50
2018-09-08T15:53:36.744Z,29.09
2018-09-08T15:56:05.191Z,28.27
2018-09-08T15:58:33.710Z,28.14
2018-09-08T16:01:02.116Z,27.33
2018-09-08T16:03:30.612Z,28.06
2018-09-08T16:05:59.095Z,29.33
2018-09-08T16:08:27.628Z,29.72
2018-09-08T16:10:56.201Z,30.02
2018-09-08T16:13:24.713Z,30.40
2018-09-08T16:15:53.183Z,30.88
2018-09-08T16:18:21.661Z,30.89
2018-09-08T16:20:50.110Z,30.26
2018-09-08T16:23:18.673Z,29.07
2018-09-08T16:25:47.111Z,28.66
2018-09-08T16:28:16.147Z,28.08
2018-09-08T16:30:44.586Z,27.95
2018-09-08T16:33:13.076Z,27.37
2018-09-08T16:35:42.118Z,26.92
2018-09-08T16:38:22.195Z,26.06
2018-09-08T16:40:52.778Z,25.28
2018-09-08T16:43:21.945Z,25.13
2018-09-08T16:45:51.130Z,25.79
2018-09-08T16:48:19.964Z,25.54
2018-09-08T16:50:48.393Z,25.45
2018-09-08T16:53:16.864Z,25.33
2018-09-08T16:55:54.154Z,25.20
2018-09-08T16:58:23.053Z,25.12
2018-09-08T17:00:58.357Z,24.51
2018-09-08T17:03:28.839Z,24.17
2018-09-08T17:05:57.266Z,23.59
2018-09-08T17:08:25.730Z,23.55
2018-09-08T17:10:54.214Z,23.35
2018-09-08T17:13:22.719Z,23.16
2018-09-08T17:15:51.171Z,22.82
2018-09-08T17:18:24.037Z,22.63
2018-09-08T17:23:21.059Z,22.21
2018-09-08T17:25:54.598Z,22.12
2018-09-08T17:28:23.409Z,21.99
2018-09-08T17:30:52.126Z,22.00
2018-09-08T17:33:20.621Z,22.02
2018-09-08T17:35:49.096Z,21.91
2018-09-08T17:38:17.573Z,21.71
2018-09-08T17:40:46.013Z,21.61
2018-09-08T17:43:19.906Z,21.49
2018-09-08T17:45:48.702Z,21.29
2018-09-08T17:48:17.156Z,21.09
2018-09-08T17:50:45.613Z,21.00
2018-09-08T17:53:17.336Z,21.00
2018-09-08T17:55:45.892Z,20.95
2018-09-08T17:58:14.357Z,20.85
2018-09-08T18:00:42.837Z,20.76
2018-09-08T18:03:11.261Z,20.51
2018-09-08T18:05:39.750Z,20.34
2018-09-08T18:08:08.223Z,20.21
2018-09-08T18:10:36.701Z,20.14
2018-09-08T18:13:05.300Z,20.10
2018-09-08T18:15:33.787Z,20.08
2018-09-08T18:18:02.216Z,19.86
2018-09-08T18:20:30.728Z,19.78
2018-09-08T18:22:59.204Z,19.69
2018-09-08T18:25:27.637Z,19.54
2018-09-08T18:27:56.068Z,19.52
2018-09-08T18:30:24.532Z,19.48
2018-09-08T18:32:53.024Z,19.37
2018-09-08T18:35:22.297Z,19.30
2018-09-08T18:37:50.754Z,19.19
2018-09-08T18:40:19.279Z,19.11
2018-09-08T18:42:47.705Z,18.99
2018-09-08T18:45:16.150Z,18.86
2018-09-08T18:47:44.593Z,18.82
2018-09-08T18:50:13.060Z,18.87
2018-09-08T18:52:41.538Z,18.79
2018-09-08T18:55:10.010Z,18.77
2018-09-08T18:57:38.453Z,18.75
2018-09-08T19:00:06.989Z,18.72
2018-09-08T19:02:35.467Z,18.73
2018-09-08T19:05:04.055Z,18.61
2018-09-08T19:07:32.503Z,18.61
2018-09-08T19:10:05.397Z,18.46
2018-09-08T19:12:35.074Z,18.33
2018-09-08T19:15:08.838Z,18.23
2018-09-08T19:17:37.331Z,18.18
2018-09-08T19:20:11.056Z,18.12
2018-09-08T19:22:39.482Z,18.11
2018-09-08T19:25:08.765Z,18.16
2018-09-08T19:27:37.210Z,18.14
2018-09-08T19:30:06.329Z,17.92
2018-09-08T19:32:34.753Z,17.91
2018-09-08T19:35:08.422Z,17.95
2018-09-08T19:37:37.461Z,17.99
2018-09-08T19:40:10.141Z,17.93
2018-09-08T19:42:38.590Z,17.80
2018-09-08T19:45:07.845Z,17.81
2018-09-08T19:47:41.735Z,17.83
2018-09-08T19:50:10.304Z,17.73
2018-09-08T19:52:44.115Z,17.70
2018-09-08T19:55:12.580Z,17.68
2018-09-08T19:57:46.306Z,17.56
2018-09-08T20:00:14.895Z,17.59
2018-09-08T20:02:43.401Z,17.46
2018-09-08T20:05:11.875Z,17.39
2018-09-08T20:07:40.584Z,17.29
2018-09-08T20:10:09.032Z,17.23
2018-09-08T20:12:37.501Z,17.12
2018-09-08T20:15:06.676Z,17.11
2018-09-08T20:17:35.513Z,17.17
2018-09-08T20:20:04.585Z,17.18
2018-09-08T20:22:33.052Z,17.12
2018-09-08T20:25:01.480Z,16.98
2018-09-08T20:27:31.882Z,16.95
2018-09-08T20:30:00.558Z,16.90
2018-09-08T20:32:29.021Z,16.91
2018-09-08T20:34:57.615Z,16.88
2018-09-08T20:37:26.082Z,16.78
2018-09-08T20:39:54.533Z,16.67
2018-09-08T20:42:23.146Z,16.64
2018-09-08T20:44:51.569Z,16.62
2018-09-08T20:47:20.496Z,16.54
2018-09-08T20:49:51.219Z,16.44
2018-09-08T20:52:19.701Z,16.39
2018-09-08T20:54:48.133Z,16.38
2018-09-08T20:57:16.639Z,16.33
2018-09-08T20:59:45.126Z,16.20
2018-09-08T21:02:15.847Z,16.16
2018-09-08T21:04:44.441Z,16.14
2018-09-08T21:07:12.971Z,16.16
2018-09-08T21:09:41.714Z,16.19
2018-09-08T21:12:10.217Z,16.10
2018-09-08T21:14:39.590Z,16.07
2018-09-08T21:17:08.432Z,16.16
2018-09-08T21:19:36.950Z,16.02
2018-09-08T21:22:05.541Z,15.99
2018-09-08T21:24:34.009Z,15.98
2018-09-08T21:27:02.440Z,16.04
2018-09-08T21:29:30.897Z,15.94
2018-09-08T21:31:59.349Z,15.94
2018-09-08T21:34:27.802Z,15.93
2018-09-08T21:36:56.240Z,15.92
2018-09-08T21:39:29.158Z,15.89
2018-09-08T21:41:57.631Z,15.80
2018-09-08T21:44:26.073Z,15.76
2018-09-08T21:46:54.512Z,15.59
2018-09-08T21:49:23.018Z,15.70
2018-09-08T21:51:51.533Z,15.67
2018-09-08T21:54:20.045Z,15.60
2018-09-08T21:56:48.485Z,15.62
2018-09-08T21:59:16.951Z,15.61
2018-09-08T22:01:45.435Z,15.39
2018-09-08T22:04:13.926Z,15.21
2018-09-08T22:06:42.356Z,15.10
2018-09-08T22:09:10.871Z,15.14
2018-09-08T22:11:39.283Z,15.30
2018-09-08T22:14:10.649Z,15.21
2018-09-08T22:16:39.090Z,15.04
2018-09-08T22:19:07.635Z,15.14
2018-09-08T22:21:36.086Z,15.06
2018-09-08T22:24:04.579Z,15.08
2018-09-08T22:26:33.070Z,15.13
2018-09-08T22:29:01.563Z,15.09
2018-09-08T22:31:30.021Z,15.06
2018-09-08T22:33:58.526Z,14.98
2018-09-08T22:36:27.098Z,14.89
2018-09-08T22:38:55.714Z,15.03
2018-09-08T22:41:24.043Z,14.87
2018-09-08T22:43:52.549Z,14.77
2018-09-08T22:46:21.055Z,14.90
2018-09-08T22:48:49.574Z,14.89
2018-09-08T22:51:18.041Z,14.83
2018-09-08T22:53:46.538Z,14.71
2018-09-08T22:56:14.978Z,14.68
2018-09-08T22:58:43.487Z,14.57
2018-09-08T23:01:12.479Z,14.68
2018-09-08T23:03:42.190Z,14.68
2018-09-08T23:06:10.756Z,14.71
2018-09-08T23:08:39.245Z,14.54
2018-09-08T23:11:07.674Z,14.55
2018-09-08T23:13:36.166Z,14.54
2018-09-08T23:16:04.652Z,14.54
2018-09-08T23:18:33.124Z,14.46
2018-09-08T23:21:05.250Z,14.42
2018-09-08T23:23:36.352Z,14.40
2018-09-08T23:26:08.170Z,14.33
2018-09-08T23:28:36.774Z,14.27
2018-09-08T23:31:05.263Z,14.19
2018-09-08T23:33:33.709Z,14.23
2018-09-08T23:36:02.257Z,14.19
2018-09-08T23:38:30.771Z,14.23
2018-09-08T23:40:59.284Z,14.25
2018-09-08T23:43:27.723Z,14.28
2018-09-08T23:45:56.219Z,14.26
2018-09-08T23:48:24.812Z,14.24
2018-09-08T23:50:53.286Z,14.01
2018-09-08T23:53:21.729Z,14.14
2018-09-08T23:55:50.266Z,14.10
2018-09-08T23:58:19.314Z,13.97
